map of TYS home
TYS - Airport
Location
City:  Knoxville, Tennessee, United States
Name:Mc Ghee Tyson Airport
ICAO:KTYS
IATA:TYS
FAA LID:TYS

Details
Type:Airport (Part 139 Class I)
Use:Public/Civil, International (customs landing rights)
Latitude:3548'34"N (35.809374)
Longitude:8359'43"W (-83.995320)
Datum:WGS 1984
Elevation:979 ft (298 m)
Variation:5.70W (WMM2015 magnetic declination)
-0.07 annual change
Runways:2
Longest:9000 × 150 ft (2743 × 45.5 m), paved

Time
Time Zone:UTC-5 (DST-4)
Local Time:

Weather
METAR:KTYS 210353Z 00000KT 10SM FEW002 BKN250 14/12 A3022 RMK AO2 SLP228 T01440122 $
TAF:KTYS 202329Z 2100/2124 VRB04KT P6SM BKN250
TEMPO 2112/2113 5SM BR SCT002

Related Locations
Nearby:
Farthest:MQZ: 11353 mi / 18271 km
Margaret River [Margaret River Airport], WA, AU

Find:

   beyond  
but within

Other Information
Maps:
Delays:
NOTAMs:
Links:
Sources:

  
flag of United States
flag of Tennessee
  

Airport Diagram

Airport diagram for TYS

Airport diagram PDF

Sectional Chart

Flight Planning
at skyvector.com

Satellite Image

Google Maps Satellite view

 

Copyright © 2004-2017 Karl L. Swartz. All rights reserved.
The Great Circle Mapper name and logo are trademarks of the Great Circle Mapper.
All other trademarks mentioned herein belong to their respective owners.
Please see credits for attibutions and further copyright information.

  Follow gcmap on Facebook Follow gcmap on Twitter Follow gcmap on Google+ GCmap on LinkedIn

hCard Microformat

Geo Microformat